Terminal Aerodrome Forecast
Issued by NWS

Home | Current Version | Previous Version | Text Only | Print | Product List | Glossary On
Versions: 1 2 3 4 5 6 7 8 9 10 11 12 13 14 15 16 17 18 19
000
FTUS43 KAPX 101700
TAFTVC
TAF
KTVC 101736Z 1018/1118 04005KT P6SM SCT045
     FM110100 VRB03KT P6SM SKC
     FM110800 VRB02KT P6SM SCT005
     FM111500 21007KT P6SM SCT060=

USA.gov is the U.S. government's official web portal to all federal, state and local government web resources and services.